TimeEDT,TemperatureF,Dew PointF,Humidity,Sea Level PressureIn,VisibilityMPH,Wind Direction,Wind SpeedMPH,Gust SpeedMPH,PrecipitationIn,Events,Conditions,WindDirDegrees,DateUTC
12:15 AM,44.1,42.8,95,30.13,10.0,Calm,Calm,-,N/A,,Clear,0,2013-09-24 04:15:00
12:35 AM,43.7,42.3,95,30.12,10.0,East,3.5,-,N/A,,Clear,100,2013-09-24 04:35:00
12:55 AM,43.0,41.9,96,30.13,10.0,Calm,Calm,-,N/A,,Clear,0,2013-09-24 04:55:00
1:15 AM,43.5,42.4,96,30.12,10.0,ESE,3.5,-,N/A,,Clear,120,2013-09-24 05:15:00
1:36 AM,43.5,42.3,95,30.12,10.0,SE,3.5,-,N/A,,Clear,140,2013-09-24 05:36:00
1:55 AM,43.9,42.8,96,30.12,10.0,Calm,Calm,-,N/A,,Clear,0,2013-09-24 05:55:00
2:15 AM,43.5,42.4,96,30.12,10.0,Calm,Calm,-,N/A,,Clear,0,2013-09-24 06:15:00
2:35 AM,43.0,41.7,95,30.13,10.0,Calm,Calm,-,N/A,,Clear,0,2013-09-24 06:35:00
2:55 AM,42.1,40.8,95,30.13,7.0,Calm,Calm,-,N/A,,Clear,0,2013-09-24 06:55:00
3:16 AM,42.8,41.5,95,30.13,-9999.0,Calm,Calm,-,N/A,,Unknown,0,2013-09-24 07:16:00
3:35 AM,42.4,41.4,96,30.12,-9999.0,Calm,Calm,-,N/A,,Unknown,0,2013-09-24 07:35:00
3:55 AM,44.1,43.0,96,30.12,10.0,Calm,Calm,-,N/A,,Clear,0,2013-09-24 07:55:00
4:15 AM,44.4,43.5,97,30.13,10.0,Calm,Calm,-,N/A,,Clear,0,2013-09-24 08:15:00
4:35 AM,41.9,40.8,96,30.13,3.0,Calm,Calm,-,N/A,,Clear,0,2013-09-24 08:35:00
4:55 AM,40.8,39.7,96,30.13,1.2,Calm,Calm,-,N/A,,Mist,0,2013-09-24 08:55:00
5:15 AM,41.5,40.5,96,30.13,1.5,Calm,Calm,-,N/A,,Mist,0,2013-09-24 09:15:00
5:35 AM,42.8,41.7,96,30.13,5.0,SSE,3.5,-,N/A,,Clear,160,2013-09-24 09:35:00
5:56 AM,42.4,41.4,96,30.14,10.0,Calm,Calm,-,N/A,,Clear,0,2013-09-24 09:56:00
6:15 AM,40.8,39.9,97,30.14,2.5,SSE,3.5,-,N/A,,Clear,150,2013-09-24 10:15:00
6:35 AM,43.3,42.4,97,30.14,5.0,Calm,Calm,-,N/A,,Clear,0,2013-09-24 10:35:00
6:55 AM,42.1,41.0,96,30.15,0.8,Calm,Calm,-,N/A,,Mist,0,2013-09-24 10:55:00
7:15 AM,42.1,41.2,97,30.15,4.0,Calm,Calm,-,N/A,,Clear,0,2013-09-24 11:15:00
7:36 AM,41.0,40.1,97,30.15,0.8,Calm,Calm,-,N/A,,Mist,0,2013-09-24 11:36:00
7:55 AM,41.0,40.1,97,30.15,2.0,Calm,Calm,-,N/A,,Clear,0,2013-09-24 11:55:00
8:15 AM,42.4,41.5,97,30.15,5.0,Calm,Calm,-,N/A,,Clear,0,2013-09-24 12:15:00
8:36 AM,45.3,44.4,97,30.15,10.0,Calm,Calm,-,N/A,,Clear,0,2013-09-24 12:36:00
8:55 AM,50.4,49.5,97,30.15,10.0,Calm,Calm,-,N/A,,Clear,0,2013-09-24 12:55:00
9:15 AM,53.8,52.7,96,30.15,10.0,South,3.5,-,N/A,,Clear,170,2013-09-24 13:15:00
9:35 AM,56.1,50.9,83,30.15,10.0,SSE,3.5,-,N/A,,Clear,150,2013-09-24 13:35:00
9:55 AM,57.7,50.5,77,30.15,10.0,SSE,4.6,-,N/A,,Clear,160,2013-09-24 13:55:00
10:15 AM,58.6,49.5,72,30.15,10.0,SSE,4.6,-,N/A,,Clear,160,2013-09-24 14:15:00
10:35 AM,59.9,49.3,68,30.14,10.0,SSE,3.5,-,N/A,,Clear,150,2013-09-24 14:35:00
10:55 AM,60.3,49.1,67,30.14,10.0,South,3.5,-,N/A,,Clear,180,2013-09-24 14:55:00
11:16 AM,60.6,48.0,63,30.14,10.0,Calm,Calm,-,N/A,,Clear,0,2013-09-24 15:16:00
11:35 AM,61.0,47.5,61,30.14,10.0,Calm,Calm,-,N/A,,Scattered Clouds,0,2013-09-24 15:35:00
11:55 AM,61.2,47.1,60,30.13,10.0,Calm,Calm,-,N/A,,Scattered Clouds,0,2013-09-24 15:55:00
12:16 PM,60.6,47.3,61,30.13,10.0,SSE,4.6,-,N/A,,Mostly Cloudy,160,2013-09-24 16:16:00
12:35 PM,62.2,47.5,58,30.12,10.0,South,5.8,-,N/A,,Scattered Clouds,190,2013-09-24 16:35:00
12:55 PM,61.2,47.3,60,30.12,10.0,Calm,Calm,-,N/A,,Scattered Clouds,0,2013-09-24 16:55:00
1:15 PM,63.3,47.1,56,30.11,10.0,ESE,5.8,-,N/A,,Mostly Cloudy,110,2013-09-24 17:15:00
1:35 PM,62.2,47.5,58,30.11,10.0,East,6.9,-,N/A,,Overcast,90,2013-09-24 17:35:00
1:55 PM,64.4,46.6,52,30.10,10.0,ESE,4.6,-,N/A,,Mostly Cloudy,110,2013-09-24 17:55:00
2:15 PM,63.9,45.5,51,30.10,10.0,ENE,4.6,-,N/A,,Scattered Clouds,60,2013-09-24 18:15:00
2:35 PM,62.6,45.0,52,30.09,10.0,SE,4.6,-,N/A,,Scattered Clouds,130,2013-09-24 18:35:00
2:56 PM,63.0,44.8,51,30.09,7.0,ESE,4.6,-,N/A,,Clear,110,2013-09-24 18:56:00
3:15 PM,63.5,44.6,50,30.08,10.0,Calm,Calm,-,N/A,,Clear,0,2013-09-24 19:15:00
3:35 PM,63.0,49.1,61,30.08,10.0,NNW,4.6,-,N/A,,Clear,330,2013-09-24 19:35:00
3:56 PM,62.6,48.6,60,30.07,10.0,WNW,3.5,-,N/A,,Clear,290,2013-09-24 19:56:00
4:15 PM,63.3,48.2,58,30.07,10.0,WNW,4.6,-,N/A,,Clear,290,2013-09-24 20:15:00
4:35 PM,63.3,48.6,59,30.07,10.0,WNW,5.8,-,N/A,,Clear,290,2013-09-24 20:35:00
4:56 PM,62.6,47.7,58,30.06,10.0,West,4.6,-,N/A,,Clear,280,2013-09-24 20:56:00
5:15 PM,62.2,47.5,58,30.06,10.0,NW,3.5,-,N/A,,Clear,310,2013-09-24 21:15:00
5:35 PM,62.4,47.7,58,30.06,10.0,West,4.6,-,N/A,,Clear,280,2013-09-24 21:35:00
5:55 PM,62.1,47.8,60,30.06,10.0,WNW,4.6,-,N/A,,Clear,300,2013-09-24 21:55:00
6:15 PM,61.5,48.0,61,30.06,10.0,WNW,3.5,-,N/A,,Clear,300,2013-09-24 22:15:00
6:36 PM,60.4,47.5,62,30.05,10.0,Calm,Calm,-,N/A,,Clear,0,2013-09-24 22:36:00
6:55 PM,59.4,48.2,67,30.05,10.0,Calm,Calm,-,N/A,,Clear,0,2013-09-24 22:55:00
7:15 PM,56.5,48.9,76,30.05,10.0,Calm,Calm,-,N/A,,Clear,0,2013-09-24 23:15:00
7:36 PM,53.2,48.7,85,30.05,10.0,Calm,Calm,-,N/A,,Clear,0,2013-09-24 23:36:00
7:55 PM,51.4,48.9,91,30.05,10.0,Calm,Calm,-,N/A,,Clear,0,2013-09-24 23:55:00
8:15 PM,50.4,48.0,92,30.04,10.0,Calm,Calm,-,N/A,,Clear,0,2013-09-25 00:15:00
8:35 PM,49.1,47.5,94,30.05,10.0,Calm,Calm,-,N/A,,Clear,0,2013-09-25 00:35:00
8:55 PM,49.3,47.8,95,30.05,10.0,Calm,Calm,-,N/A,,Clear,0,2013-09-25 00:55:00
9:15 PM,46.9,45.7,95,30.05,7.0,Calm,Calm,-,N/A,,Clear,0,2013-09-25 01:15:00
9:35 PM,46.6,45.1,95,30.04,0.5,Calm,Calm,-,N/A,Fog,Fog,0,2013-09-25 01:35:00
9:56 PM,46.4,45.1,95,30.04,3.0,Calm,Calm,-,N/A,,Clear,0,2013-09-25 01:56:00
10:15 PM,46.8,45.7,96,30.03,10.0,Calm,Calm,-,N/A,,Clear,0,2013-09-25 02:15:00
10:35 PM,46.6,45.3,95,30.03,7.0,Calm,Calm,-,N/A,,Clear,0,2013-09-25 02:35:00
10:56 PM,45.9,44.6,95,30.03,0.5,Calm,Calm,-,N/A,Fog,Fog,0,2013-09-25 02:56:00
11:15 PM,45.1,43.7,95,30.03,1.2,Calm,Calm,-,N/A,,Mist,0,2013-09-25 03:15:00
11:35 PM,45.5,44.2,95,30.03,4.0,Calm,Calm,-,N/A,,Clear,0,2013-09-25 03:35:00
11:55 PM,45.5,44.4,96,30.03,0.8,Calm,Calm,-,N/A,,Mist,0,2013-09-25 03:55:00